NKS1109 KFLL-KPNS
Flight info
| Callsign | NKS1109 |
|---|---|
| Flight time | 1h 28m |
| Altitude | 34000 |
| Route | HROCK2 SMELZ Q116 JAWJA CEW PENSI |
| Aircraft | A21N/M-SDE2E3FGHIJ1RWXY/LB1 |
Departure
| Time | 2026-05-03 20:58 |
|---|---|
| Airport | Fort Lauderdale Hollywood International Airport (KFLL) |
Arrival
| Time | 2026-05-03 22:26 |
|---|---|
| Airport | Pensacola International Airport (KPNS) |
| Time | Latitude | Longitude | Altitude | Speed | Heading |
|---|---|---|---|---|---|
| 2026-05-03 20:15 | 26.06922 | -80.14139 | 21 ft | 0 kts | 298° |
| 2026-05-03 20:24 | 26.06921 | -80.14137 | 21 ft | 2 kts | 298° |
| 2026-05-03 20:24 | 26.06909 | -80.14112 | 21 ft | 2 kts | 298° |
| 2026-05-03 20:24 | 26.06902 | -80.14093 | 21 ft | 4 kts | 252° |
| 2026-05-03 20:24 | 26.06915 | -80.14083 | 21 ft | 3 kts | 180° |
| 2026-05-03 20:25 | 26.06936 | -80.14083 | 21 ft | 0 kts | 180° |
| 2026-05-03 20:27 | 26.06931 | -80.14083 | 21 ft | 3 kts | 180° |
| 2026-05-03 20:27 | 26.06894 | -80.14084 | 21 ft | 7 kts | 182° |
| 2026-05-03 20:28 | 26.06838 | -80.14094 | 23 ft | 9 kts | 213° |
| 2026-05-03 20:28 | 26.06815 | -80.14164 | 21 ft | 7 kts | 268° |
| 2026-05-03 20:28 | 26.06815 | -80.14175 | 21 ft | 0 kts | 269° |
| 2026-05-03 20:29 | 26.06815 | -80.14192 | 21 ft | 4 kts | 271° |
| 2026-05-03 20:29 | 26.06816 | -80.14234 | 21 ft | 7 kts | 271° |
| 2026-05-03 20:29 | 26.06816 | -80.14265 | 21 ft | 3 kts | 271° |
| 2026-05-03 20:29 | 26.06816 | -80.14273 | 21 ft | 2 kts | 270° |
| 2026-05-03 20:30 | 26.06816 | -80.14288 | 21 ft | 2 kts | 270° |
| 2026-05-03 20:30 | 26.06816 | -80.14325 | 21 ft | 8 kts | 272° |
| 2026-05-03 20:30 | 26.06820 | -80.14448 | 21 ft | 21 kts | 271° |
| 2026-05-03 20:30 | 26.06787 | -80.14593 | 21 ft | 19 kts | 218° |
| 2026-05-03 20:31 | 26.06765 | -80.14734 | 21 ft | 20 kts | 274° |
| 2026-05-03 20:31 | 26.06766 | -80.14891 | 21 ft | 21 kts | 270° |
| 2026-05-03 20:31 | 26.06766 | -80.15059 | 21 ft | 22 kts | 270° |
| 2026-05-03 20:31 | 26.06768 | -80.15237 | 21 ft | 23 kts | 271° |
| 2026-05-03 20:32 | 26.06754 | -80.15360 | 22 ft | 11 kts | 234° |
| 2026-05-03 20:32 | 26.06697 | -80.15429 | 22 ft | 13 kts | 252° |
| 2026-05-03 20:32 | 26.06696 | -80.15515 | 21 ft | 6 kts | 270° |
| 2026-05-03 20:32 | 26.06696 | -80.15522 | 21 ft | 1 kts | 269° |
| 2026-05-03 20:33 | 26.06696 | -80.15540 | 21 ft | 3 kts | 271° |
| 2026-05-03 20:33 | 26.06696 | -80.15570 | 21 ft | 5 kts | 271° |
| 2026-05-03 20:33 | 26.06696 | -80.15592 | 21 ft | 0 kts | 270° |
| 2026-05-03 20:35 | 26.06696 | -80.15596 | 21 ft | 2 kts | 270° |
| 2026-05-03 20:35 | 26.06696 | -80.15618 | 21 ft | 4 kts | 270° |
| 2026-05-03 20:35 | 26.06697 | -80.15660 | 21 ft | 6 kts | 271° |
| 2026-05-03 20:35 | 26.06697 | -80.15663 | 21 ft | 0 kts | 271° |
| 2026-05-03 20:44 | 26.06697 | -80.15668 | 21 ft | 2 kts | 271° |
| 2026-05-03 20:45 | 26.06697 | -80.15702 | 21 ft | 6 kts | 270° |
| 2026-05-03 20:45 | 26.06698 | -80.15720 | 21 ft | 0 kts | 271° |
| 2026-05-03 20:46 | 26.06698 | -80.15725 | 21 ft | 2 kts | 271° |
| 2026-05-03 20:46 | 26.06698 | -80.15735 | 21 ft | 0 kts | 271° |
| 2026-05-03 20:48 | 26.06699 | -80.15765 | 21 ft | 0 kts | 269° |
| 2026-05-03 20:50 | 26.06698 | -80.15772 | 21 ft | 2 kts | 267° |
| 2026-05-03 20:50 | 26.06698 | -80.15776 | 21 ft | 0 kts | 262° |
| 2026-05-03 20:52 | 26.06697 | -80.15782 | 21 ft | 2 kts | 261° |
| 2026-05-03 20:52 | 26.06686 | -80.15806 | 22 ft | 0 kts | 224° |
| 2026-05-03 20:56 | 26.06684 | -80.15807 | 21 ft | 2 kts | 221° |
| 2026-05-03 20:56 | 26.06622 | -80.15819 | 22 ft | 12 kts | 166° |
| 2026-05-03 20:56 | 26.06589 | -80.15756 | 25 ft | 5 kts | 92° |
| 2026-05-03 20:56 | 26.06589 | -80.15746 | 25 ft | 0 kts | 91° |
| 2026-05-03 20:57 | 26.06587 | -80.15622 | 28 ft | 48 kts | 90° |
| 2026-05-03 20:57 | 26.06585 | -80.14954 | 27 ft | 122 kts | 90° |
| 2026-05-03 20:57 | 26.06577 | -80.13804 | 205 ft | 157 kts | 90° |
| 2026-05-03 20:58 | 26.06541 | -80.12601 | 819 ft | 159 kts | 91° |
| 2026-05-03 20:58 | 26.06544 | -80.11329 | 1283 ft | 173 kts | 78° |
| 2026-05-03 20:58 | 26.07156 | -80.10063 | 1415 ft | 204 kts | 52° |
| 2026-05-03 20:58 | 26.08023 | -80.08707 | 1846 ft | 224 kts | 53° |
| 2026-05-03 20:59 | 26.09053 | -80.07303 | 2124 ft | 250 kts | 39° |
| 2026-05-03 20:59 | 26.10645 | -80.06355 | 2642 ft | 263 kts | 18° |
| 2026-05-03 20:59 | 26.12360 | -80.05711 | 3357 ft | 267 kts | 16° |
| 2026-05-03 20:59 | 26.14138 | -80.05078 | 3785 ft | 269 kts | 13° |
| 2026-05-03 21:00 | 26.15987 | -80.04848 | 3998 ft | 268 kts | 351° |
| 2026-05-03 21:00 | 26.16605 | -80.04955 | 4024 ft | 266 kts | 345° |
| 2026-05-03 21:00 | 26.19512 | -80.06061 | 4032 ft | 265 kts | 337° |
| 2026-05-03 21:00 | 26.21204 | -80.06853 | 4010 ft | 263 kts | 328° |
| 2026-05-03 21:01 | 26.22598 | -80.08143 | 4025 ft | 260 kts | 306° |
| 2026-05-03 21:01 | 26.23437 | -80.09897 | 4434 ft | 257 kts | 290° |
| 2026-05-03 21:01 | 26.24065 | -80.11764 | 5186 ft | 260 kts | 289° |
| 2026-05-03 21:01 | 26.24709 | -80.13675 | 6034 ft | 264 kts | 290° |
| 2026-05-03 21:02 | 26.25366 | -80.15600 | 6857 ft | 266 kts | 288° |
| 2026-05-03 21:02 | 26.25922 | -80.17569 | 7660 ft | 267 kts | 285° |
| 2026-05-03 21:02 | 26.26442 | -80.19558 | 8438 ft | 269 kts | 284° |
| 2026-05-03 21:02 | 26.26968 | -80.21566 | 9236 ft | 271 kts | 284° |
| 2026-05-03 21:03 | 26.27500 | -80.23588 | 10027 ft | 273 kts | 284° |
| 2026-05-03 21:03 | 26.28050 | -80.25663 | 10478 ft | 287 kts | 284° |
| 2026-05-03 21:03 | 26.28630 | -80.27858 | 10755 ft | 305 kts | 284° |
| 2026-05-03 21:03 | 26.29247 | -80.30190 | 11012 ft | 323 kts | 284° |
| 2026-05-03 21:04 | 26.29901 | -80.32667 | 11276 ft | 345 kts | 285° |
| 2026-05-03 21:04 | 26.30601 | -80.35300 | 11501 ft | 362 kts | 284° |
| 2026-05-03 21:04 | 26.31330 | -80.38051 | 11803 ft | 379 kts | 284° |
| 2026-05-03 21:04 | 26.32080 | -80.40888 | 12376 ft | 383 kts | 285° |
| 2026-05-03 21:05 | 26.32838 | -80.43731 | 12821 ft | 385 kts | 284° |
| 2026-05-03 21:05 | 26.33603 | -80.46606 | 12990 ft | 386 kts | 284° |
| 2026-05-03 21:05 | 26.34359 | -80.49471 | 13027 ft | 386 kts | 284° |
| 2026-05-03 21:05 | 26.35114 | -80.52346 | 13040 ft | 386 kts | 284° |
| 2026-05-03 21:06 | 26.35868 | -80.55207 | 13126 ft | 385 kts | 284° |
| 2026-05-03 21:06 | 26.36621 | -80.58074 | 13545 ft | 387 kts | 284° |
| 2026-05-03 21:06 | 26.37382 | -80.60967 | 14060 ft | 389 kts | 284° |
| 2026-05-03 21:06 | 26.37897 | -80.62921 | 14394 ft | 390 kts | 284° |
| 2026-05-03 21:07 | 26.38665 | -80.65837 | 14891 ft | 392 kts | 284° |
| 2026-05-03 21:07 | 26.39448 | -80.68750 | 15408 ft | 395 kts | 285° |
| 2026-05-03 21:07 | 26.40521 | -80.71581 | 15919 ft | 401 kts | 294° |
| 2026-05-03 21:07 | 26.42072 | -80.74191 | 16402 ft | 410 kts | 304° |
| 2026-05-03 21:08 | 26.43993 | -80.76592 | 16930 ft | 416 kts | 308° |
| 2026-05-03 21:08 | 26.45981 | -80.78954 | 17490 ft | 419 kts | 308° |
| 2026-05-03 21:08 | 26.47978 | -80.81331 | 18023 ft | 420 kts | 308° |
| 2026-05-03 21:08 | 26.49973 | -80.83728 | 18465 ft | 422 kts | 308° |
| 2026-05-03 21:09 | 26.51941 | -80.86107 | 18857 ft | 424 kts | 307° |
| 2026-05-03 21:09 | 26.53946 | -80.88533 | 19241 ft | 427 kts | 307° |
| 2026-05-03 21:09 | 26.55989 | -80.91009 | 19634 ft | 430 kts | 307° |
| 2026-05-03 21:09 | 26.57992 | -80.93440 | 20031 ft | 433 kts | 307° |
| 2026-05-03 21:10 | 26.60039 | -80.95925 | 20469 ft | 436 kts | 307° |
| 2026-05-03 21:10 | 26.62130 | -80.98462 | 20945 ft | 440 kts | 307° |
| 2026-05-03 21:10 | 26.64186 | -81.00956 | 21451 ft | 443 kts | 307° |
| 2026-05-03 21:10 | 26.66282 | -81.03501 | 21960 ft | 446 kts | 307° |
| 2026-05-03 21:11 | 26.68395 | -81.06064 | 22440 ft | 449 kts | 306° |
| 2026-05-03 21:11 | 26.70510 | -81.08635 | 22881 ft | 452 kts | 306° |
| 2026-05-03 21:11 | 26.72643 | -81.11229 | 23297 ft | 454 kts | 306° |
| 2026-05-03 21:11 | 26.74789 | -81.13845 | 23674 ft | 457 kts | 306° |
| 2026-05-03 21:12 | 26.76943 | -81.16472 | 23984 ft | 459 kts | 306° |
| 2026-05-03 21:12 | 26.79106 | -81.19111 | 24342 ft | 460 kts | 306° |
| 2026-05-03 21:12 | 26.81266 | -81.21747 | 24808 ft | 459 kts | 306° |
| 2026-05-03 21:12 | 26.83418 | -81.24378 | 25271 ft | 456 kts | 306° |
| 2026-05-03 21:13 | 26.85556 | -81.26989 | 25729 ft | 455 kts | 306° |
| 2026-05-03 21:13 | 26.87689 | -81.29595 | 26178 ft | 453 kts | 306° |
| 2026-05-03 21:13 | 26.89814 | -81.32194 | 26644 ft | 451 kts | 306° |
| 2026-05-03 21:13 | 26.91925 | -81.34778 | 27145 ft | 449 kts | 305° |
| 2026-05-03 21:14 | 26.94024 | -81.37349 | 27636 ft | 446 kts | 305° |
| 2026-05-03 21:14 | 26.96114 | -81.39910 | 28089 ft | 445 kts | 305° |
| 2026-05-03 21:14 | 26.98197 | -81.42464 | 28555 ft | 443 kts | 305° |
| 2026-05-03 21:14 | 27.00272 | -81.45011 | 28991 ft | 442 kts | 305° |
| 2026-05-03 21:15 | 27.02342 | -81.47553 | 29417 ft | 440 kts | 305° |
| 2026-05-03 21:15 | 27.04442 | -81.50053 | 29851 ft | 443 kts | 308° |
| 2026-05-03 21:15 | 27.06867 | -81.52230 | 30229 ft | 452 kts | 317° |
| 2026-05-03 21:15 | 27.09502 | -81.54155 | 30556 ft | 452 kts | 319° |
| 2026-05-03 21:16 | 27.12162 | -81.56044 | 30890 ft | 451 kts | 319° |
| 2026-05-03 21:16 | 27.14802 | -81.57924 | 31227 ft | 449 kts | 318° |
| 2026-05-03 21:16 | 27.17432 | -81.59810 | 31551 ft | 447 kts | 318° |
| 2026-05-03 21:16 | 27.20048 | -81.61694 | 31873 ft | 446 kts | 317° |
| 2026-05-03 21:17 | 27.22655 | -81.63574 | 32234 ft | 444 kts | 317° |
| 2026-05-03 21:17 | 27.24408 | -81.64840 | 32443 ft | 444 kts | 317° |
| 2026-05-03 21:17 | 27.27838 | -81.67321 | 32858 ft | 441 kts | 316° |
| 2026-05-03 21:17 | 27.30422 | -81.69188 | 33171 ft | 440 kts | 316° |
| 2026-05-03 21:18 | 27.32985 | -81.71043 | 33473 ft | 438 kts | 316° |
| 2026-05-03 21:18 | 27.35541 | -81.72893 | 33766 ft | 436 kts | 315° |
| 2026-05-03 21:18 | 27.38086 | -81.74739 | 34036 ft | 435 kts | 315° |
| 2026-05-03 21:18 | 27.40624 | -81.76585 | 34104 ft | 435 kts | 315° |
| 2026-05-03 21:19 | 27.45744 | -81.80241 | 34096 ft | 440 kts | 319° |
| 2026-05-03 21:19 | 27.51422 | -81.83161 | 34093 ft | 451 kts | 324° |
| 2026-05-03 21:20 | 27.57197 | -81.85937 | 34092 ft | 451 kts | 324° |
| 2026-05-03 21:20 | 27.62947 | -81.88736 | 34092 ft | 451 kts | 324° |
| 2026-05-03 21:21 | 27.68701 | -81.91547 | 34089 ft | 450 kts | 324° |
| 2026-05-03 21:21 | 27.74454 | -81.94356 | 34087 ft | 450 kts | 324° |
| 2026-05-03 21:22 | 27.80201 | -81.97167 | 34083 ft | 450 kts | 324° |
| 2026-05-03 21:22 | 27.85949 | -81.99985 | 34108 ft | 449 kts | 324° |
| 2026-05-03 21:23 | 27.91675 | -82.02795 | 34083 ft | 448 kts | 323° |
| 2026-05-03 21:23 | 27.97396 | -82.05600 | 34082 ft | 448 kts | 323° |
| 2026-05-03 21:24 | 28.03111 | -82.08412 | 34078 ft | 448 kts | 323° |
| 2026-05-03 21:24 | 28.08740 | -82.11365 | 34069 ft | 436 kts | 316° |
| 2026-05-03 21:25 | 28.13666 | -82.15185 | 34082 ft | 427 kts | 312° |
| 2026-05-03 21:25 | 28.18505 | -82.19085 | 34101 ft | 427 kts | 312° |
| 2026-05-03 21:26 | 28.23354 | -82.22962 | 34088 ft | 427 kts | 312° |
| 2026-05-03 21:26 | 28.28207 | -82.26841 | 34085 ft | 427 kts | 312° |
| 2026-05-03 21:27 | 28.33060 | -82.30731 | 34090 ft | 427 kts | 312° |
| 2026-05-03 21:27 | 28.37912 | -82.34617 | 34082 ft | 426 kts | 312° |
| 2026-05-03 21:28 | 28.42757 | -82.38502 | 34084 ft | 426 kts | 312° |
| 2026-05-03 21:28 | 28.47603 | -82.42401 | 34367 ft | 426 kts | 324° |
| 2026-05-03 21:29 | 28.50017 | -82.44342 | 33715 ft | 425 kts | 314° |
| 2026-05-03 21:29 | 28.52424 | -82.46303 | 34298 ft | 426 kts | 316° |
| 2026-05-03 21:29 | 28.54856 | -82.48261 | 33852 ft | 430 kts | 312° |
| 2026-05-03 21:29 | 28.57312 | -82.50228 | 33984 ft | 432 kts | 312° |
| 2026-05-03 21:30 | 28.62214 | -82.54159 | 34079 ft | 430 kts | 311° |
| 2026-05-03 21:30 | 28.67095 | -82.58094 | 34105 ft | 430 kts | 311° |
| 2026-05-03 21:31 | 28.71975 | -82.62035 | 34095 ft | 430 kts | 311° |
| 2026-05-03 21:31 | 28.76848 | -82.65979 | 34129 ft | 429 kts | 311° |
| 2026-05-03 21:32 | 28.81712 | -82.69919 | 34103 ft | 429 kts | 312° |
| 2026-05-03 21:32 | 28.86574 | -82.73853 | 34084 ft | 429 kts | 311° |
| 2026-05-03 21:33 | 28.91432 | -82.77800 | 34087 ft | 429 kts | 311° |
| 2026-05-03 21:33 | 28.96286 | -82.81754 | 34095 ft | 428 kts | 311° |
| 2026-05-03 21:34 | 29.01136 | -82.85706 | 34085 ft | 428 kts | 312° |
| 2026-05-03 21:34 | 29.06020 | -82.89677 | 34082 ft | 428 kts | 311° |
| 2026-05-03 21:35 | 29.10862 | -82.93618 | 34090 ft | 426 kts | 312° |
| 2026-05-03 21:35 | 29.15619 | -82.97557 | 34081 ft | 419 kts | 308° |
| 2026-05-03 21:36 | 29.17585 | -82.99911 | 34077 ft | 400 kts | 296° |
| 2026-05-03 21:36 | 29.18984 | -83.02583 | 34091 ft | 386 kts | 286° |
| 2026-05-03 21:36 | 29.21183 | -83.08203 | 34092 ft | 384 kts | 285° |
| 2026-05-03 21:37 | 29.23369 | -83.13786 | 34088 ft | 385 kts | 285° |
| 2026-05-03 21:37 | 29.25579 | -83.19356 | 34099 ft | 384 kts | 285° |
| 2026-05-03 21:38 | 29.27800 | -83.24933 | 34092 ft | 384 kts | 285° |
| 2026-05-03 21:38 | 29.30018 | -83.30509 | 34090 ft | 384 kts | 285° |
| 2026-05-03 21:39 | 29.32230 | -83.36082 | 34095 ft | 384 kts | 285° |
| 2026-05-03 21:39 | 29.34441 | -83.41662 | 34094 ft | 384 kts | 285° |
| 2026-05-03 21:40 | 29.36645 | -83.47245 | 34101 ft | 384 kts | 285° |
| 2026-05-03 21:40 | 29.38831 | -83.52790 | 34127 ft | 384 kts | 285° |
| 2026-05-03 21:41 | 29.41049 | -83.58415 | 34105 ft | 386 kts | 285° |
| 2026-05-03 21:41 | 29.43255 | -83.64030 | 34105 ft | 386 kts | 285° |
| 2026-05-03 21:42 | 29.45460 | -83.69639 | 34104 ft | 386 kts | 285° |
| 2026-05-03 21:42 | 29.47660 | -83.75228 | 34103 ft | 386 kts | 285° |
| 2026-05-03 21:43 | 29.49879 | -83.80884 | 34109 ft | 386 kts | 285° |
| 2026-05-03 21:43 | 29.52059 | -83.86463 | 34110 ft | 386 kts | 285° |
| 2026-05-03 21:44 | 29.54257 | -83.92092 | 34124 ft | 386 kts | 285° |
| 2026-05-03 21:44 | 29.56459 | -83.97730 | 34109 ft | 387 kts | 285° |
| 2026-05-03 21:45 | 29.58657 | -84.03375 | 34112 ft | 387 kts | 285° |
| 2026-05-03 21:45 | 29.60856 | -84.09025 | 34115 ft | 387 kts | 285° |
| 2026-05-03 21:46 | 29.62691 | -84.13746 | 34112 ft | 387 kts | 285° |
| 2026-05-03 21:46 | 29.64889 | -84.19404 | 34109 ft | 387 kts | 285° |
| 2026-05-03 21:47 | 29.67078 | -84.25058 | 34114 ft | 387 kts | 285° |
| 2026-05-03 21:47 | 29.69265 | -84.30715 | 34139 ft | 387 kts | 285° |
| 2026-05-03 21:48 | 29.71456 | -84.36386 | 34149 ft | 388 kts | 286° |
| 2026-05-03 21:48 | 29.73647 | -84.42066 | 34124 ft | 389 kts | 286° |
| 2026-05-03 21:49 | 29.75842 | -84.47766 | 34123 ft | 389 kts | 286° |
| 2026-05-03 21:49 | 29.78031 | -84.53467 | 34126 ft | 389 kts | 286° |
| 2026-05-03 21:50 | 29.80218 | -84.59161 | 34121 ft | 389 kts | 285° |
| 2026-05-03 21:50 | 29.82396 | -84.64868 | 34122 ft | 389 kts | 285° |
| 2026-05-03 21:51 | 29.84568 | -84.70573 | 34137 ft | 390 kts | 286° |
| 2026-05-03 21:51 | 29.86751 | -84.76299 | 34135 ft | 390 kts | 286° |
| 2026-05-03 21:52 | 29.88939 | -84.82024 | 34137 ft | 390 kts | 286° |
| 2026-05-03 21:52 | 29.91126 | -84.87749 | 34138 ft | 390 kts | 286° |
| 2026-05-03 21:53 | 29.93310 | -84.93479 | 34137 ft | 390 kts | 286° |
| 2026-05-03 21:53 | 29.95877 | -84.99054 | 34135 ft | 398 kts | 292° |
| 2026-05-03 21:54 | 29.98774 | -85.04503 | 34135 ft | 398 kts | 292° |
| 2026-05-03 21:54 | 30.01645 | -85.09957 | 34140 ft | 397 kts | 292° |
| 2026-05-03 21:55 | 30.04494 | -85.15417 | 34134 ft | 398 kts | 292° |
| 2026-05-03 21:55 | 30.07360 | -85.20906 | 34118 ft | 399 kts | 292° |
| 2026-05-03 21:56 | 30.10223 | -85.26394 | 34121 ft | 399 kts | 292° |
| 2026-05-03 21:56 | 30.13081 | -85.31882 | 34119 ft | 399 kts | 292° |
| 2026-05-03 21:57 | 30.15927 | -85.37387 | 34110 ft | 399 kts | 292° |
| 2026-05-03 21:57 | 30.18771 | -85.42887 | 34142 ft | 399 kts | 292° |
| 2026-05-03 21:58 | 30.21626 | -85.48388 | 34126 ft | 399 kts | 293° |
| 2026-05-03 21:58 | 30.24474 | -85.53905 | 34136 ft | 399 kts | 292° |
| 2026-05-03 21:59 | 30.27310 | -85.59423 | 34140 ft | 399 kts | 292° |
| 2026-05-03 21:59 | 30.30156 | -85.64930 | 34135 ft | 399 kts | 292° |
| 2026-05-03 22:00 | 30.33008 | -85.70441 | 34097 ft | 397 kts | 292° |
| 2026-05-03 22:00 | 30.34421 | -85.73174 | 32921 ft | 399 kts | 293° |
| 2026-05-03 22:00 | 30.35857 | -85.75979 | 31441 ft | 408 kts | 293° |
| 2026-05-03 22:01 | 30.37323 | -85.78838 | 30023 ft | 416 kts | 294° |
| 2026-05-03 22:01 | 30.38808 | -85.81736 | 28491 ft | 421 kts | 294° |
| 2026-05-03 22:01 | 30.40304 | -85.84643 | 27506 ft | 419 kts | 294° |
| 2026-05-03 22:01 | 30.41793 | -85.87547 | 26673 ft | 420 kts | 295° |
| 2026-05-03 22:02 | 30.43281 | -85.90448 | 25845 ft | 419 kts | 295° |
| 2026-05-03 22:02 | 30.44772 | -85.93352 | 25003 ft | 419 kts | 295° |
| 2026-05-03 22:02 | 30.46258 | -85.96249 | 24241 ft | 418 kts | 295° |
| 2026-05-03 22:02 | 30.47735 | -85.99148 | 23547 ft | 417 kts | 295° |
| 2026-05-03 22:03 | 30.49234 | -86.02093 | 22925 ft | 436 kts | 296° |
| 2026-05-03 22:03 | 30.50786 | -86.05122 | 22338 ft | 433 kts | 296° |
| 2026-05-03 22:03 | 30.52309 | -86.08092 | 21924 ft | 428 kts | 296° |
| 2026-05-03 22:03 | 30.53841 | -86.11098 | 21538 ft | 431 kts | 296° |
| 2026-05-03 22:04 | 30.55343 | -86.14044 | 20996 ft | 422 kts | 296° |
| 2026-05-03 22:04 | 30.56832 | -86.16957 | 20400 ft | 415 kts | 296° |
| 2026-05-03 22:04 | 30.58290 | -86.19825 | 19868 ft | 410 kts | 299° |
| 2026-05-03 22:04 | 30.59731 | -86.22668 | 19111 ft | 409 kts | 300° |
| 2026-05-03 22:05 | 30.61208 | -86.25578 | 18420 ft | 434 kts | 300° |
| 2026-05-03 22:05 | 30.62764 | -86.28635 | 17948 ft | 438 kts | 298° |
| 2026-05-03 22:05 | 30.64288 | -86.31618 | 17309 ft | 421 kts | 298° |
| 2026-05-03 22:05 | 30.65752 | -86.34496 | 16602 ft | 410 kts | 298° |
| 2026-05-03 22:06 | 30.67182 | -86.37334 | 15892 ft | 405 kts | 298° |
| 2026-05-03 22:06 | 30.68601 | -86.40144 | 15301 ft | 402 kts | 298° |
| 2026-05-03 22:06 | 30.70008 | -86.42931 | 14767 ft | 397 kts | 298° |
| 2026-05-03 22:06 | 30.71371 | -86.45625 | 14339 ft | 390 kts | 298° |
| 2026-05-03 22:07 | 30.72758 | -86.48366 | 13951 ft | 384 kts | 298° |
| 2026-05-03 22:07 | 30.74100 | -86.51027 | 13442 ft | 379 kts | 298° |
| 2026-05-03 22:07 | 30.75430 | -86.53666 | 12874 ft | 376 kts | 299° |
| 2026-05-03 22:07 | 30.76747 | -86.56273 | 12389 ft | 372 kts | 299° |
| 2026-05-03 22:08 | 30.78046 | -86.58850 | 12026 ft | 364 kts | 299° |
| 2026-05-03 22:08 | 30.79298 | -86.61341 | 11758 ft | 350 kts | 299° |
| 2026-05-03 22:08 | 30.80497 | -86.63733 | 11548 ft | 335 kts | 300° |
| 2026-05-03 22:08 | 30.81633 | -86.66029 | 11365 ft | 320 kts | 297° |
| 2026-05-03 22:09 | 30.82386 | -86.68393 | 11179 ft | 305 kts | 282° |
| 2026-05-03 22:09 | 30.82519 | -86.70798 | 11029 ft | 292 kts | 269° |
| 2026-05-03 22:09 | 30.82387 | -86.73108 | 10984 ft | 284 kts | 267° |
| 2026-05-03 22:10 | 30.82101 | -86.77684 | 11008 ft | 284 kts | 268° |
| 2026-05-03 22:10 | 30.81971 | -86.79967 | 11001 ft | 283 kts | 268° |
| 2026-05-03 22:10 | 30.81843 | -86.82254 | 11003 ft | 283 kts | 268° |
| 2026-05-03 22:10 | 30.81717 | -86.84543 | 11003 ft | 284 kts | 268° |
| 2026-05-03 22:11 | 30.81589 | -86.86834 | 11002 ft | 283 kts | 268° |
| 2026-05-03 22:11 | 30.81462 | -86.89120 | 11002 ft | 284 kts | 268° |
| 2026-05-03 22:11 | 30.81334 | -86.91411 | 11001 ft | 284 kts | 268° |
| 2026-05-03 22:11 | 30.81206 | -86.93706 | 11001 ft | 284 kts | 267° |
| 2026-05-03 22:12 | 30.81076 | -86.95991 | 10997 ft | 284 kts | 268° |
| 2026-05-03 22:12 | 30.80950 | -86.98283 | 10999 ft | 284 kts | 268° |
| 2026-05-03 22:12 | 30.80825 | -87.00568 | 11002 ft | 283 kts | 268° |
| 2026-05-03 22:12 | 30.80698 | -87.02861 | 11000 ft | 284 kts | 268° |
| 2026-05-03 22:13 | 30.80571 | -87.05148 | 11003 ft | 283 kts | 268° |
| 2026-05-03 22:13 | 30.80443 | -87.07431 | 11002 ft | 283 kts | 268° |
| 2026-05-03 22:13 | 30.80080 | -87.09674 | 10870 ft | 283 kts | 250° |
| 2026-05-03 22:13 | 30.79007 | -87.11582 | 10395 ft | 287 kts | 226° |
| 2026-05-03 22:14 | 30.77319 | -87.12841 | 9879 ft | 293 kts | 202° |
| 2026-05-03 22:14 | 30.75309 | -87.13211 | 9344 ft | 297 kts | 178° |
| 2026-05-03 22:14 | 30.73263 | -87.12817 | 8859 ft | 297 kts | 168° |
| 2026-05-03 22:14 | 30.71261 | -87.12254 | 8420 ft | 296 kts | 167° |
| 2026-05-03 22:15 | 30.69262 | -87.11678 | 8008 ft | 294 kts | 166° |
| 2026-05-03 22:15 | 30.67283 | -87.11117 | 7623 ft | 292 kts | 166° |
| 2026-05-03 22:15 | 30.65317 | -87.10572 | 7215 ft | 290 kts | 166° |
| 2026-05-03 22:15 | 30.63353 | -87.10039 | 6812 ft | 289 kts | 166° |
| 2026-05-03 22:16 | 30.61401 | -87.09523 | 6424 ft | 287 kts | 166° |
| 2026-05-03 22:16 | 30.59459 | -87.09016 | 6025 ft | 285 kts | 167° |
| 2026-05-03 22:16 | 30.57538 | -87.08506 | 5641 ft | 282 kts | 167° |
| 2026-05-03 22:16 | 30.55625 | -87.07994 | 5223 ft | 281 kts | 167° |
| 2026-05-03 22:17 | 30.53730 | -87.07480 | 4803 ft | 280 kts | 167° |
| 2026-05-03 22:17 | 30.51833 | -87.06958 | 4411 ft | 279 kts | 167° |
| 2026-05-03 22:17 | 30.49952 | -87.06438 | 4044 ft | 277 kts | 167° |
| 2026-05-03 22:17 | 30.48084 | -87.05921 | 3660 ft | 276 kts | 167° |
| 2026-05-03 22:18 | 30.46220 | -87.05406 | 3257 ft | 275 kts | 167° |
| 2026-05-03 22:18 | 30.44362 | -87.04893 | 3026 ft | 275 kts | 167° |
| 2026-05-03 22:18 | 30.42510 | -87.04383 | 2987 ft | 274 kts | 166° |
| 2026-05-03 22:18 | 30.40662 | -87.03877 | 2992 ft | 272 kts | 166° |
| 2026-05-03 22:19 | 30.38817 | -87.03375 | 3004 ft | 273 kts | 166° |
| 2026-05-03 22:19 | 30.36967 | -87.02867 | 3006 ft | 274 kts | 167° |
| 2026-05-03 22:19 | 30.35112 | -87.02354 | 3011 ft | 273 kts | 167° |
| 2026-05-03 22:19 | 30.33273 | -87.01845 | 3011 ft | 271 kts | 167° |
| 2026-05-03 22:20 | 30.31437 | -87.01567 | 3004 ft | 270 kts | 185° |
| 2026-05-03 22:20 | 30.29714 | -87.02154 | 2998 ft | 250 kts | 211° |
| 2026-05-03 22:20 | 30.28367 | -87.03301 | 2989 ft | 236 kts | 231° |
| 2026-05-03 22:20 | 30.27624 | -87.04910 | 2982 ft | 229 kts | 258° |
| 2026-05-03 22:21 | 30.27575 | -87.06741 | 3000 ft | 227 kts | 279° |
| 2026-05-03 22:21 | 30.27807 | -87.08550 | 3007 ft | 228 kts | 281° |
| 2026-05-03 22:21 | 30.28287 | -87.10265 | 3001 ft | 224 kts | 305° |
| 2026-05-03 22:21 | 30.29402 | -87.11498 | 3009 ft | 223 kts | 327° |
| 2026-05-03 22:22 | 30.30711 | -87.12425 | 3007 ft | 215 kts | 330° |
| 2026-05-03 22:22 | 30.31945 | -87.13272 | 2979 ft | 190 kts | 330° |
| 2026-05-03 22:22 | 30.33038 | -87.14028 | 3016 ft | 186 kts | 330° |
| 2026-05-03 22:22 | 30.34156 | -87.14803 | 3096 ft | 190 kts | 330° |
| 2026-05-03 22:23 | 30.35319 | -87.15531 | 3105 ft | 190 kts | 338° |
| 2026-05-03 22:23 | 30.36574 | -87.16002 | 2882 ft | 189 kts | 345° |
| 2026-05-03 22:23 | 30.37846 | -87.16345 | 2733 ft | 183 kts | 348° |
| 2026-05-03 22:23 | 30.39033 | -87.16622 | 2518 ft | 166 kts | 348° |
| 2026-05-03 22:24 | 30.40114 | -87.16890 | 2126 ft | 156 kts | 347° |
| 2026-05-03 22:24 | 30.40825 | -87.17073 | 1785 ft | 154 kts | 347° |
| 2026-05-03 22:24 | 30.42174 | -87.17456 | 1129 ft | 147 kts | 345° |
| 2026-05-03 22:24 | 30.42817 | -87.17631 | 872 ft | 133 kts | 347° |
| 2026-05-03 22:25 | 30.43981 | -87.17925 | 580 ft | 128 kts | 345° |
| 2026-05-03 22:25 | 30.44852 | -87.18160 | 418 ft | 129 kts | 345° |
| 2026-05-03 22:25 | 30.45447 | -87.18313 | 321 ft | 132 kts | 344° |
| 2026-05-03 22:25 | 30.46335 | -87.18548 | 183 ft | 130 kts | 345° |
| 2026-05-03 22:26 | 30.47162 | -87.18768 | 132 ft | 101 kts | 346° |
| 2026-05-03 22:26 | 30.47644 | -87.18892 | 132 ft | 36 kts | 353° |
| 2026-05-03 22:26 | 30.47713 | -87.18925 | 132 ft | 8 kts | 300° |
| 2026-05-03 22:26 | 30.47715 | -87.18995 | 131 ft | 10 kts | 262° |
| 2026-05-03 22:27 | 30.47698 | -87.19080 | 131 ft | 12 kts | 257° |
| 2026-05-03 22:27 | 30.47645 | -87.19139 | 131 ft | 12 kts | 161° |
| 2026-05-03 22:27 | 30.47601 | -87.19109 | 131 ft | 4 kts | 150° |
| 2026-05-03 22:27 | 30.47577 | -87.19126 | 131 ft | 6 kts | 246° |
| 2026-05-03 22:28 | 30.47567 | -87.19161 | 131 ft | 3 kts | 253° |
| 2026-05-03 22:28 | 30.47563 | -87.19175 | 131 ft | 0 kts | 252° |
| 2026-05-03 22:28 | 30.47563 | -87.19176 | 131 ft | 0 kts | 252° |